sensor_id;sensor_type;location;lat;lon;timestamp;pressure;altitude;pressure_sealevel;temperature;humidity
46129;BME280;31860;45.186;5.790;2023-04-30T00:00:19;98907.03;;;19.80;100.00
46129;BME280;31860;45.186;5.790;2023-04-30T00:02:44;98908.84;;;19.79;100.00
46129;BME280;31860;45.186;5.790;2023-04-30T00:05:10;98907.03;;;19.80;100.00
46129;BME280;31860;45.186;5.790;2023-04-30T00:07:35;98907.19;;;19.77;100.00
46129;BME280;31860;45.186;5.790;2023-04-30T00:10:01;98899.28;;;19.75;100.00
46129;BME280;31860;45.186;5.790;2023-04-30T00:12:27;98906.31;;;19.76;100.00
46129;BME280;31860;45.186;5.790;2023-04-30T00:14:52;98900.19;;;19.74;100.00
46129;BME280;31860;45.186;5.790;2023-04-30T00:17:20;98890.47;;;19.75;100.00
46129;BME280;31860;45.186;5.790;2023-04-30T00:19:45;98890.47;;;19.75;100.00
46129;BME280;31860;45.186;5.790;2023-04-30T00:22:11;98892.31;;;19.73;100.00
46129;BME280;31860;45.186;5.790;2023-04-30T00:24:36;98890.66;;;19.70;100.00
46129;BME280;31860;45.186;5.790;2023-04-30T00:27:01;98890.66;;;19.70;100.00
46129;BME280;31860;45.186;5.790;2023-04-30T00:29:27;98886.22;;;19.71;100.00
46129;BME280;31860;45.186;5.790;2023-04-30T00:31:52;98887.19;;;19.68;100.00
46129;BME280;31860;45.186;5.790;2023-04-30T00:34:18;98888.06;;;19.69;100.00
46129;BME280;31860;45.186;5.790;2023-04-30T00:36:43;98886.34;;;19.68;100.00
46129;BME280;31860;45.186;5.790;2023-04-30T00:39:08;98884.63;;;19.67;100.00
46129;BME280;31860;45.186;5.790;2023-04-30T00:41:34;98881.13;;;19.66;100.00
46129;BME280;31860;45.186;5.790;2023-04-30T00:44:00;98888.22;;;19.66;100.00
46129;BME280;31860;45.186;5.790;2023-04-30T00:46:27;98881.16;;;19.65;100.00
46129;BME280;31860;45.186;5.790;2023-04-30T00:48:52;98882.09;;;19.64;100.00
46129;BME280;31860;45.186;5.790;2023-04-30T00:51:18;98872.47;;;19.61;100.00
46129;BME280;31860;45.186;5.790;2023-04-30T00:53:44;98883.94;;;19.62;100.00
46129;BME280;31860;45.186;5.790;2023-04-30T00:56:12;98873.41;;;19.60;100.00
46129;BME280;31860;45.186;5.790;2023-04-30T00:58:40;98873.41;;;19.60;100.00
46129;BME280;31860;45.186;5.790;2023-04-30T01:01:06;98877.84;;;19.60;100.00
46129;BME280;31860;45.186;5.790;2023-04-30T01:03:31;98876.16;;;19.59;100.00
46129;BME280;31860;45.186;5.790;2023-04-30T01:05:57;98871.75;;;19.58;100.00
46129;BME280;31860;45.186;5.790;2023-04-30T01:08:22;98874.47;;;19.56;100.00
46129;BME280;31860;45.186;5.790;2023-04-30T01:11:00;98869.97;;;19.58;100.00
46129;BME280;31860;45.186;5.790;2023-04-30T01:13:36;98874.47;;;19.56;100.00
46129;BME280;31860;45.186;5.790;2023-04-30T01:16:14;98882.34;;;19.58;100.00
46129;BME280;31860;45.186;5.790;2023-04-30T01:18:51;98879.69;;;19.58;100.00
46129;BME280;31860;45.186;5.790;2023-04-30T01:21:18;98876.16;;;19.59;100.00
46129;BME280;31860;45.186;5.790;2023-04-30T01:26:52;98882.34;;;19.58;100.00
46129;BME280;31860;45.186;5.790;2023-04-30T01:29:23;98882.34;;;19.58;100.00
46129;BME280;31860;45.186;5.790;2023-04-30T01:31:50;98883.28;;;19.57;100.00
46129;BME280;31860;45.186;5.790;2023-04-30T01:34:15;98888.59;;;19.57;100.00
46129;BME280;31860;45.186;5.790;2023-04-30T01:42:19;98880.81;;;19.52;100.00
46129;BME280;31860;45.186;5.790;2023-04-30T01:44:57;98876.47;;;19.51;100.00
46129;BME280;31860;45.186;5.790;2023-04-30T01:47:35;98877.28;;;19.52;100.00
46129;BME280;31860;45.186;5.790;2023-04-30T01:52:53;98882.59;;;19.52;100.00
46129;BME280;31860;45.186;5.790;2023-04-30T01:55:35;98881.69;;;19.53;100.00
46129;BME280;31860;45.186;5.790;2023-04-30T01:58:05;98881.75;;;19.51;100.00
46129;BME280;31860;45.186;5.790;2023-04-30T02:00:31;98876.50;;;19.50;100.00
46129;BME280;31860;45.186;5.790;2023-04-30T02:02:58;98884.34;;;19.53;100.00
46129;BME280;31860;45.186;5.790;2023-04-30T02:05:23;98877.22;;;19.53;100.00
46129;BME280;31860;45.186;5.790;2023-04-30T02:07:50;98874.56;;;19.53;100.00
46129;BME280;31860;45.186;5.790;2023-04-30T02:10:19;98872.78;;;19.54;100.00
46129;BME280;31860;45.186;5.790;2023-04-30T02:12:45;98872.00;;;19.52;100.00
46129;BME280;31860;45.186;5.790;2023-04-30T02:15:11;98877.22;;;19.53;100.00
46129;BME280;31860;45.186;5.790;2023-04-30T02:17:36;98867.50;;;19.54;100.00
46129;BME280;31860;45.186;5.790;2023-04-30T02:20:02;98868.44;;;19.53;100.00
46129;BME280;31860;45.186;5.790;2023-04-30T02:22:28;98874.56;;;19.53;100.00
46129;BME280;31860;45.186;5.790;2023-04-30T02:24:53;98871.09;;;19.53;100.00
46129;BME280;31860;45.186;5.790;2023-04-30T02:27:22;98871.03;;;19.54;100.00
46129;BME280;31860;45.186;5.790;2023-04-30T02:29:48;98868.38;;;19.54;100.00
46129;BME280;31860;45.186;5.790;2023-04-30T02:32:14;98870.94;;;19.56;100.00
46129;BME280;31860;45.186;5.790;2023-04-30T02:34:40;98878.03;;;19.55;100.00
46129;BME280;31860;45.186;5.790;2023-04-30T02:37:06;98875.38;;;19.55;100.00
46129;BME280;31860;45.186;5.790;2023-04-30T02:39:32;98878.03;;;19.55;100.00
46129;BME280;31860;45.186;5.790;2023-04-30T02:41:57;98869.16;;;19.56;100.00
46129;BME280;31860;45.186;5.790;2023-04-30T02:44:23;98869.25;;;19.55;100.00
46129;BME280;31860;45.186;5.790;2023-04-30T02:46:48;98872.78;;;19.54;100.00
46129;BME280;31860;45.186;5.790;2023-04-30T02:49:13;98878.09;;;19.54;100.00
46129;BME280;31860;45.186;5.790;2023-04-30T02:51:39;98879.84;;;19.55;100.00
46129;BME280;31860;45.186;5.790;2023-04-30T02:54:04;98875.44;;;19.54;100.00
46129;BME280;31860;45.186;5.790;2023-04-30T02:56:30;98875.44;;;19.54;100.00
46129;BME280;31860;45.186;5.790;2023-04-30T02:58:55;98881.56;;;19.56;100.00
46129;BME280;31860;45.186;5.790;2023-04-30T03:01:21;98880.75;;;19.54;100.00
46129;BME280;31860;45.186;5.790;2023-04-30T03:03:46;98877.22;;;19.53;100.00
46129;BME280;31860;45.186;5.790;2023-04-30T03:06:11;98879.03;;;19.53;100.00
46129;BME280;31860;45.186;5.790;2023-04-30T03:08:37;98879.84;;;19.55;100.00
46129;BME280;31860;45.186;5.790;2023-04-30T03:11:02;98877.19;;;19.55;100.00
46129;BME280;31860;45.186;5.790;2023-04-30T03:13:28;98886.84;;;19.56;100.00
46129;BME280;31860;45.186;5.790;2023-04-30T03:16:00;98878.03;;;19.55;100.00
46129;BME280;31860;45.186;5.790;2023-04-30T03:18:27;98874.41;;;19.58;100.00
46129;BME280;31860;45.186;5.790;2023-04-30T03:20:52;98878.81;;;19.57;100.00
46129;BME280;31860;45.186;5.790;2023-04-30T03:23:18;98876.31;;;19.54;100.00
46129;BME280;31860;45.186;5.790;2023-04-30T03:25:43;98874.53;;;19.55;100.00
46129;BME280;31860;45.186;5.790;2023-04-30T03:28:09;98879.78;;;19.56;100.00
46129;BME280;31860;45.186;5.790;2023-04-30T03:30:34;98879.84;;;19.55;100.00
46129;BME280;31860;45.186;5.790;2023-04-30T03:33:00;98873.66;;;19.54;100.00
46129;BME280;31860;45.186;5.790;2023-04-30T03:35:25;98878.91;;;19.56;100.00
46129;BME280;31860;45.186;5.790;2023-04-30T03:37:51;98877.19;;;19.55;100.00
46129;BME280;31860;45.186;5.790;2023-04-30T03:40:16;98877.19;;;19.55;100.00
46129;BME280;31860;45.186;5.790;2023-04-30T03:42:42;98886.84;;;19.56;100.00
46129;BME280;31860;45.186;5.790;2023-04-30T03:45:07;98881.63;;;19.54;100.00
46129;BME280;31860;45.186;5.790;2023-04-30T03:47:34;98882.50;;;19.55;100.00
46129;BME280;31860;45.186;5.790;2023-04-30T03:50:01;98885.19;;;19.53;100.00
46129;BME280;31860;45.186;5.790;2023-04-30T03:52:28;98876.31;;;19.54;100.00
46129;BME280;31860;45.186;5.790;2023-04-30T03:54:53;98879.84;;;19.55;100.00
46129;BME280;31860;45.186;5.790;2023-04-30T03:57:18;98884.19;;;19.56;100.00
46129;BME280;31860;45.186;5.790;2023-04-30T03:59:44;98876.31;;;19.54;100.00
46129;BME280;31860;45.186;5.790;2023-04-30T04:02:09;98881.47;;;19.57;100.00
46129;BME280;31860;45.186;5.790;2023-04-30T04:04:35;98884.19;;;19.56;100.00
46129;BME280;31860;45.186;5.790;2023-04-30T04:07:00;98882.50;;;19.55;100.00
46129;BME280;31860;45.186;5.790;2023-04-30T04:09:27;98881.56;;;19.56;100.00
46129;BME280;31860;45.186;5.790;2023-04-30T04:11:52;98877.19;;;19.55;100.00
46129;BME280;31860;45.186;5.790;2023-04-30T04:14:18;98893.03;;;19.56;100.00
46129;BME280;31860;45.186;5.790;2023-04-30T04:16:44;98887.66;;;19.58;100.00
46129;BME280;31860;45.186;5.790;2023-04-30T04:19:09;98884.13;;;19.57;100.00
46129;BME280;31860;45.186;5.790;2023-04-30T04:21:37;98881.44;;;19.59;100.00
46129;BME280;31860;45.186;5.790;2023-04-30T04:24:02;98886.75;;;19.59;100.00
46129;BME280;31860;45.186;5.790;2023-04-30T04:26:36;98887.66;;;19.58;100.00
46129;BME280;31860;45.186;5.790;2023-04-30T04:29:02;98890.31;;;19.58;100.00
46129;BME280;31860;45.186;5.790;2023-04-30T04:31:32;98885.00;;;19.58;100.00
46129;BME280;31860;45.186;5.790;2023-04-30T04:33:59;98884.13;;;19.57;100.00
46129;BME280;31860;45.186;5.790;2023-04-30T04:36:28;98878.81;;;19.57;100.00
46129;BME280;31860;45.186;5.790;2023-04-30T04:38:55;98890.31;;;19.58;100.00
46129;BME280;31860;45.186;5.790;2023-04-30T04:41:29;98885.06;;;19.56;100.00
46129;BME280;31860;45.186;5.790;2023-04-30T04:43:54;98896.53;;;19.57;100.00
46129;BME280;31860;45.186;5.790;2023-04-30T04:46:21;98896.53;;;19.57;100.00
46129;BME280;31860;45.186;5.790;2023-04-30T04:48:47;98901.84;;;19.57;100.00
46129;BME280;31860;45.186;5.790;2023-04-30T04:51:13;98897.44;;;19.56;100.00
46129;BME280;31860;45.186;5.790;2023-04-30T04:53:39;98892.22;;;19.54;100.00
46129;BME280;31860;45.186;5.790;2023-04-30T04:56:05;98894.88;;;19.54;100.00
46129;BME280;31860;45.186;5.790;2023-04-30T04:58:31;98899.28;;;19.54;100.00
46129;BME280;31860;45.186;5.790;2023-04-30T05:00:57;98905.53;;;19.53;100.00
46129;BME280;31860;45.186;5.790;2023-04-30T05:03:24;98905.59;;;19.51;100.00
46129;BME280;31860;45.186;5.790;2023-04-30T05:05:50;98907.38;;;19.51;100.00
46129;BME280;31860;45.186;5.790;2023-04-30T05:08:15;98917.91;;;19.52;100.00
46129;BME280;31860;45.186;5.790;2023-04-30T05:10:41;98903.88;;;19.50;100.00
46129;BME280;31860;45.186;5.790;2023-04-30T05:13:06;98908.28;;;19.50;100.00
46129;BME280;31860;45.186;5.790;2023-04-30T05:15:32;98911.88;;;19.49;100.00
46129;BME280;31860;45.186;5.790;2023-04-30T05:17:57;98915.44;;;19.48;100.00
46129;BME280;31860;45.186;5.790;2023-04-30T05:20:22;98911.88;;;19.49;100.00
46129;BME280;31860;45.186;5.790;2023-04-30T05:22:48;98902.19;;;19.48;100.00
46129;BME280;31860;45.186;5.790;2023-04-30T05:25:13;98905.63;;;19.50;100.00
46129;BME280;31860;45.186;5.790;2023-04-30T05:27:39;98896.84;;;19.49;100.00
46129;BME280;31860;45.186;5.790;2023-04-30T05:30:05;98904.91;;;19.46;100.00
46129;BME280;31860;45.186;5.790;2023-04-30T05:32:31;98902.19;;;19.48;100.00
46129;BME280;31860;45.186;5.790;2023-04-30T05:34:56;98910.22;;;19.46;100.00
46129;BME280;31860;45.186;5.790;2023-04-30T05:37:21;98911.97;;;19.46;100.00
46129;BME280;31860;45.186;5.790;2023-04-30T05:39:47;98911.16;;;19.45;100.00
46129;BME280;31860;45.186;5.790;2023-04-30T05:42:13;98915.44;;;19.48;100.00
46129;BME280;31860;45.186;5.790;2023-04-30T05:44:39;98923.38;;;19.48;100.00
46129;BME280;31860;45.186;5.790;2023-04-30T05:47:05;98919.91;;;19.47;100.00
46129;BME280;31860;45.186;5.790;2023-04-30T05:49:30;98915.56;;;19.45;100.00
46129;BME280;31860;45.186;5.790;2023-04-30T05:51:56;98918.22;;;19.45;100.00
46129;BME280;31860;45.186;5.790;2023-04-30T05:54:21;98917.41;;;19.43;100.00
46129;BME280;31860;45.186;5.790;2023-04-30T05:56:47;98916.50;;;19.44;100.00
46129;BME280;31860;45.186;5.790;2023-04-30T05:59:12;98919.16;;;19.44;100.00
46129;BME280;31860;45.186;5.790;2023-04-30T06:01:38;98915.56;;;19.45;100.00
46129;BME280;31860;45.186;5.790;2023-04-30T06:04:03;98924.31;;;19.47;100.00
46129;BME280;31860;45.186;5.790;2023-04-30T06:06:29;98919.09;;;19.45;100.00
46129;BME280;31860;45.186;5.790;2023-04-30T06:08:56;98917.28;;;19.46;100.00
46129;BME280;31860;45.186;5.790;2023-04-30T06:11:22;98925.19;;;19.47;100.00
46129;BME280;31860;45.186;5.790;2023-04-30T06:13:50;98923.53;;;19.45;100.00
46129;BME280;31860;45.186;5.790;2023-04-30T06:16:15;98925.31;;;19.44;100.00
46129;BME280;31860;45.186;5.790;2023-04-30T06:18:40;98924.41;;;19.45;100.00
46129;BME280;31860;45.186;5.790;2023-04-30T06:21:06;98925.31;;;19.44;100.00
46129;BME280;31860;45.186;5.790;2023-04-30T06:23:31;98924.47;;;19.44;100.00
46129;BME280;31860;45.186;5.790;2023-04-30T06:25:57;98919.19;;;19.42;100.00
46129;BME280;31860;45.186;5.790;2023-04-30T06:28:23;98921.91;;;19.41;100.00
46129;BME280;31860;45.186;5.790;2023-04-30T06:30:49;98926.31;;;19.42;100.00
46129;BME280;31860;45.186;5.790;2023-04-30T06:33:15;98926.31;;;19.42;100.00
46129;BME280;31860;45.186;5.790;2023-04-30T06:35:40;98928.09;;;19.41;100.00
46129;BME280;31860;45.186;5.790;2023-04-30T06:38:05;98926.34;;;19.40;100.00
46129;BME280;31860;45.186;5.790;2023-04-30T06:40:31;98930.81;;;19.40;100.00
46129;BME280;31860;45.186;5.790;2023-04-30T06:42:56;98929.00;;;19.40;100.00
46129;BME280;31860;45.186;5.790;2023-04-30T06:45:22;98935.09;;;19.42;100.00
46129;BME280;31860;45.186;5.790;2023-04-30T06:47:47;98936.91;;;19.42;100.00
46129;BME280;31860;45.186;5.790;2023-04-30T06:50:13;98936.91;;;19.42;100.00
46129;BME280;31860;45.186;5.790;2023-04-30T06:52:39;98936.91;;;19.42;100.00
46129;BME280;31860;45.186;5.790;2023-04-30T06:55:05;98938.53;;;19.44;100.00
46129;BME280;31860;45.186;5.790;2023-04-30T06:57:31;98937.72;;;19.44;100.00
46129;BME280;31860;45.186;5.790;2023-04-30T06:59:56;98936.78;;;19.45;100.00
46129;BME280;31860;45.186;5.790;2023-04-30T07:02:22;98932.41;;;19.44;100.00
46129;BME280;31860;45.186;5.790;2023-04-30T07:04:48;98937.72;;;19.44;100.00
46129;BME280;31860;45.186;5.790;2023-04-30T07:07:13;98939.41;;;19.45;100.00
46129;BME280;31860;45.186;5.790;2023-04-30T07:09:38;98942.06;;;19.45;100.00
46129;BME280;31860;45.186;5.790;2023-04-30T07:12:04;98942.06;;;19.45;100.00
46129;BME280;31860;45.186;5.790;2023-04-30T07:14:30;98946.50;;;19.44;100.00
46129;BME280;31860;45.186;5.790;2023-04-30T07:16:55;98948.34;;;19.42;100.00
46129;BME280;31860;45.186;5.790;2023-04-30T07:19:21;98940.47;;;19.41;100.00
46129;BME280;31860;45.186;5.790;2023-04-30T07:21:47;98952.00;;;19.40;100.00
46129;BME280;31860;45.186;5.790;2023-04-30T07:24:13;98955.53;;;19.39;100.00
46129;BME280;31860;45.186;5.790;2023-04-30T07:26:38;98959.97;;;19.38;100.00
46129;BME280;31860;45.186;5.790;2023-04-30T07:29:04;98959.13;;;19.38;100.00
46129;BME280;31860;45.186;5.790;2023-04-30T07:31:29;98965.34;;;19.37;100.00
46129;BME280;31860;45.186;5.790;2023-04-30T07:33:55;98961.88;;;19.35;100.00
46129;BME280;31860;45.186;5.790;2023-04-30T07:36:21;98966.41;;;19.31;100.00
46129;BME280;31860;45.186;5.790;2023-04-30T07:38:46;98964.69;;;19.30;100.00
46129;BME280;31860;45.186;5.790;2023-04-30T07:41:12;98965.72;;;19.26;100.00
46129;BME280;31860;45.186;5.790;2023-04-30T07:43:38;98971.84;;;19.28;100.00
46129;BME280;31860;45.186;5.790;2023-04-30T07:46:03;98969.28;;;19.25;100.00
46129;BME280;31860;45.186;5.790;2023-04-30T07:48:29;98969.34;;;19.24;100.00
46129;BME280;31860;45.186;5.790;2023-04-30T07:50:55;98972.06;;;19.22;100.00
46129;BME280;31860;45.186;5.790;2023-04-30T07:53:22;98973.00;;;19.21;100.00
46129;BME280;31860;45.186;5.790;2023-04-30T07:55:47;98973.03;;;19.20;100.00
46129;BME280;31860;45.186;5.790;2023-04-30T07:58:13;98970.47;;;19.18;99.95
46129;BME280;31860;45.186;5.790;2023-04-30T08:00:38;98977.50;;;19.19;99.68
46129;BME280;31860;45.186;5.790;2023-04-30T08:03:04;98973.97;;;19.19;100.00
46129;BME280;31860;45.186;5.790;2023-04-30T08:05:29;98979.34;;;19.17;100.00
46129;BME280;31860;45.186;5.790;2023-04-30T08:07:55;98976.69;;;19.17;99.74
46129;BME280;31860;45.186;5.790;2023-04-30T08:10:20;98980.19;;;19.18;100.00
46129;BME280;31860;45.186;5.790;2023-04-30T08:12:45;98977.59;;;19.16;100.00
46129;BME280;31860;45.186;5.790;2023-04-30T08:15:11;98981.03;;;19.18;100.00
46129;BME280;31860;45.186;5.790;2023-04-30T08:17:36;98981.03;;;19.18;99.76
46129;BME280;31860;45.186;5.790;2023-04-30T08:20:02;98977.50;;;19.19;99.27
46129;BME280;31860;45.186;5.790;2023-04-30T08:22:28;98990.69;;;19.21;99.39
46129;BME280;31860;45.186;5.790;2023-04-30T08:24:57;98990.69;;;19.21;99.69
46129;BME280;31860;45.186;5.790;2023-04-30T08:27:22;98996.78;;;19.23;99.62
46129;BME280;31860;45.186;5.790;2023-04-30T08:29:48;98996.72;;;19.24;99.83
46129;BME280;31860;45.186;5.790;2023-04-30T08:32:13;99000.16;;;19.26;99.91
46129;BME280;31860;45.186;5.790;2023-04-30T08:34:39;99004.50;;;19.29;100.00
46129;BME280;31860;45.186;5.790;2023-04-30T08:37:06;99000.91;;;19.30;100.00
46129;BME280;31860;45.186;5.790;2023-04-30T08:39:31;99013.22;;;19.31;100.00
46129;BME280;31860;45.186;5.790;2023-04-30T08:42:01;99007.84;;;19.34;100.00
46129;BME280;31860;45.186;5.790;2023-04-30T08:44:28;99017.47;;;19.36;100.00
46129;BME280;31860;45.186;5.790;2023-04-30T08:46:55;99013.97;;;19.36;99.90
46129;BME280;31860;45.186;5.790;2023-04-30T08:49:22;99018.31;;;19.37;99.05
46129;BME280;31860;45.186;5.790;2023-04-30T08:51:47;99013.03;;;19.37;98.88
46129;BME280;31860;45.186;5.790;2023-04-30T08:54:13;99019.13;;;19.39;98.91
46129;BME280;31860;45.186;5.790;2023-04-30T08:56:41;99021.78;;;19.39;98.35
46129;BME280;31860;45.186;5.790;2023-04-30T08:59:07;99017.41;;;19.38;99.06
46129;BME280;31860;45.186;5.790;2023-04-30T09:01:33;99022.66;;;19.39;99.17
46129;BME280;31860;45.186;5.790;2023-04-30T09:03:59;99024.44;;;19.39;99.14
46129;BME280;31860;45.186;5.790;2023-04-30T09:06:25;99026.19;;;19.38;99.09
46129;BME280;31860;45.186;5.790;2023-04-30T09:08:51;99020.00;;;19.39;99.44
46129;BME280;31860;45.186;5.790;2023-04-30T09:13:49;99025.25;;;19.41;99.73
46129;BME280;31860;45.186;5.790;2023-04-30T09:16:14;99015.59;;;19.38;100.00
46129;BME280;31860;45.186;5.790;2023-04-30T09:18:40;99025.38;;;19.38;100.00
46129;BME280;31860;45.186;5.790;2023-04-30T09:21:06;99022.72;;;19.38;100.00
46129;BME280;31860;45.186;5.790;2023-04-30T09:23:33;99022.78;;;19.36;100.00
46129;BME280;31860;45.186;5.790;2023-04-30T09:25:59;99027.06;;;19.39;100.00
46129;BME280;31860;45.186;5.790;2023-04-30T09:28:27;99028.91;;;19.37;100.00
46129;BME280;31860;45.186;5.790;2023-04-30T09:30:55;99024.50;;;19.37;100.00
46129;BME280;31860;45.186;5.790;2023-04-30T09:33:21;99021.78;;;19.39;100.00
46129;BME280;31860;45.186;5.790;2023-04-30T09:35:47;99021.78;;;19.39;100.00
46129;BME280;31860;45.186;5.790;2023-04-30T09:38:27;99029.72;;;19.39;100.00
46129;BME280;31860;45.186;5.790;2023-04-30T09:40:53;99018.25;;;19.38;100.00
46129;BME280;31860;45.186;5.790;2023-04-30T09:43:18;99017.34;;;19.39;100.00
46129;BME280;31860;45.186;5.790;2023-04-30T09:45:48;99024.44;;;19.39;98.44
46129;BME280;31860;45.186;5.790;2023-04-30T09:48:20;99026.34;;;19.35;98.22
46129;BME280;31860;45.186;5.790;2023-04-30T09:50:47;99034.28;;;19.35;98.34
46129;BME280;31860;45.186;5.790;2023-04-30T09:53:13;99032.56;;;19.34;99.23
46129;BME280;31860;45.186;5.790;2023-04-30T09:55:43;99037.81;;;19.36;97.98
46129;BME280;31860;45.186;5.790;2023-04-30T09:58:10;99037.81;;;19.36;98.91
46129;BME280;31860;45.186;5.790;2023-04-30T10:00:37;99030.72;;;19.36;99.67
46129;BME280;31860;45.186;5.790;2023-04-30T10:03:08;99032.44;;;19.37;99.35
46129;BME280;31860;45.186;5.790;2023-04-30T10:05:41;99029.84;;;19.36;97.60
46129;BME280;31860;45.186;5.790;2023-04-30T10:08:33;99036.88;;;19.37;96.33
46129;BME280;31860;45.186;5.790;2023-04-30T10:11:05;99035.97;;;19.38;96.79
46129;BME280;31860;45.186;5.790;2023-04-30T10:13:44;99027.16;;;19.37;96.25
46129;BME280;31860;45.186;5.790;2023-04-30T10:16:17;99030.66;;;19.38;96.27
46129;BME280;31860;45.186;5.790;2023-04-30T10:18:49;99039.50;;;19.37;95.61
46129;BME280;31860;45.186;5.790;2023-04-30T10:21:17;99045.69;;;19.37;95.42
46129;BME280;31860;45.186;5.790;2023-04-30T10:23:43;99036.81;;;19.38;94.85
46129;BME280;31860;45.186;5.790;2023-04-30T10:26:12;99040.38;;;19.37;94.87
46129;BME280;31860;45.186;5.790;2023-04-30T10:28:41;99042.09;;;19.38;95.21
46129;BME280;31860;45.186;5.790;2023-04-30T10:31:07;99044.75;;;19.38;95.54
46129;BME280;31860;45.186;5.790;2023-04-30T10:33:52;99043.91;;;19.38;94.86
46129;BME280;31860;45.186;5.790;2023-04-30T10:36:25;99043.03;;;19.37;95.03
46129;BME280;31860;45.186;5.790;2023-04-30T10:38:52;99041.25;;;19.38;94.93
46129;BME280;31860;45.186;5.790;2023-04-30T10:41:19;99046.56;;;19.38;94.86
46129;BME280;31860;45.186;5.790;2023-04-30T10:43:46;99045.69;;;19.37;93.87
46129;BME280;31860;45.186;5.790;2023-04-30T10:46:21;99041.31;;;19.36;92.84
46129;BME280;31860;45.186;5.790;2023-04-30T10:48:46;99037.81;;;19.36;93.16
46129;BME280;31860;45.186;5.790;2023-04-30T10:51:13;99038.69;;;19.36;93.39
46129;BME280;31860;45.186;5.790;2023-04-30T10:53:41;99035.25;;;19.33;93.43
46129;BME280;31860;45.186;5.790;2023-04-30T10:56:06;99034.34;;;19.34;92.89
46129;BME280;31860;45.186;5.790;2023-04-30T10:58:39;99033.56;;;19.30;92.94
46129;BME280;31860;45.186;5.790;2023-04-30T11:01:11;99036.28;;;19.29;92.93
46129;BME280;31860;45.186;5.790;2023-04-30T11:03:40;99041.63;;;19.27;94.20
46129;BME280;31860;45.186;5.790;2023-04-30T11:06:12;99038.22;;;19.24;94.55
46129;BME280;31860;45.186;5.790;2023-04-30T11:08:41;99040.94;;;19.22;95.14
46129;BME280;31860;45.186;5.790;2023-04-30T11:11:08;99042.78;;;19.20;95.69
46129;BME280;31860;45.186;5.790;2023-04-30T11:13:44;99039.38;;;19.17;96.42
46129;BME280;31860;45.186;5.790;2023-04-30T11:16:10;99038.56;;;19.15;97.28
46129;BME280;31860;45.186;5.790;2023-04-30T11:18:45;99040.34;;;19.14;95.79
46129;BME280;31860;45.186;5.790;2023-04-30T11:21:11;99045.69;;;19.13;96.96
46129;BME280;31860;45.186;5.790;2023-04-30T11:23:41;99042.19;;;19.12;97.39
46129;BME280;31860;45.186;5.790;2023-04-30T11:26:08;99044.88;;;19.11;97.05
46129;BME280;31860;45.186;5.790;2023-04-30T11:28:35;99059.97;;;19.09;96.68
46129;BME280;31860;45.186;5.790;2023-04-30T11:31:02;99057.44;;;19.06;97.07
46129;BME280;31860;45.186;5.790;2023-04-30T11:33:30;99056.63;;;19.04;98.00
46129;BME280;31860;45.186;5.790;2023-04-30T11:35:57;99049.59;;;19.03;97.29
46129;BME280;31860;45.186;5.790;2023-04-30T11:38:35;99050.59;;;19.00;97.45
46129;BME280;31860;45.186;5.790;2023-04-30T11:41:02;99048.84;;;18.99;97.06
46129;BME280;31860;45.186;5.790;2023-04-30T11:43:31;99053.31;;;18.99;97.33
46129;BME280;31860;45.186;5.790;2023-04-30T11:46:09;99052.53;;;18.95;98.32
46129;BME280;31860;45.186;5.790;2023-04-30T11:48:37;99039.34;;;18.93;98.60
46129;BME280;31860;45.186;5.790;2023-04-30T11:51:23;99045.50;;;18.94;99.42
46129;BME280;31860;45.186;5.790;2023-04-30T11:53:52;99043.81;;;18.91;98.56
46129;BME280;31860;45.186;5.790;2023-04-30T11:56:21;99045.63;;;18.91;99.07
46129;BME280;31860;45.186;5.790;2023-04-30T11:58:49;99050.97;;;18.89;99.32
46129;BME280;31860;45.186;5.790;2023-04-30T12:01:16;99046.69;;;18.85;99.42
46129;BME280;31860;45.186;5.790;2023-04-30T12:03:43;99053.03;;;18.81;100.00
46129;BME280;31860;45.186;5.790;2023-04-30T12:06:30;99049.44;;;18.82;100.00
46129;BME280;31860;45.186;5.790;2023-04-30T12:08:56;99050.31;;;18.83;100.00
46129;BME280;31860;45.186;5.790;2023-04-30T12:11:26;99045.09;;;18.81;100.00
46129;BME280;31860;45.186;5.790;2023-04-30T12:13:59;99048.66;;;18.80;100.00
46129;BME280;31860;45.186;5.790;2023-04-30T12:16:37;99041.56;;;18.81;100.00
46129;BME280;31860;45.186;5.790;2023-04-30T12:19:03;99049.50;;;18.81;100.00
46129;BME280;31860;45.186;5.790;2023-04-30T12:21:28;99046.00;;;18.80;100.00
46129;BME280;31860;45.186;5.790;2023-04-30T12:23:54;99049.44;;;18.82;100.00
46129;BME280;31860;45.186;5.790;2023-04-30T12:26:19;99051.19;;;18.83;100.00
46129;BME280;31860;45.186;5.790;2023-04-30T12:28:48;99056.44;;;18.85;100.00
46129;BME280;31860;45.186;5.790;2023-04-30T12:31:16;99056.38;;;18.86;100.00
46129;BME280;31860;45.186;5.790;2023-04-30T12:33:42;99053.72;;;18.86;100.00
46129;BME280;31860;45.186;5.790;2023-04-30T12:36:11;99064.25;;;18.88;100.00
46129;BME280;31860;45.186;5.790;2023-04-30T12:38:41;99063.38;;;18.87;100.00
46129;BME280;31860;45.186;5.790;2023-04-30T12:41:10;99059.88;;;18.87;100.00
46129;BME280;31860;45.186;5.790;2023-04-30T12:43:39;99054.59;;;18.87;100.00
46129;BME280;31860;45.186;5.790;2023-04-30T12:46:05;99067.78;;;18.88;100.00
46129;BME280;31860;45.186;5.790;2023-04-30T12:48:42;99056.31;;;18.88;100.00
46129;BME280;31860;45.186;5.790;2023-04-30T12:51:09;99048.44;;;18.86;100.00
46129;BME280;31860;45.186;5.790;2023-04-30T12:53:44;99053.72;;;18.86;100.00
46129;BME280;31860;45.186;5.790;2023-04-30T12:58:42;99058.97;;;18.88;100.00
46129;BME280;31860;45.186;5.790;2023-04-30T13:01:19;99060.72;;;18.87;100.00
46129;BME280;31860;45.186;5.790;2023-04-30T13:03:45;99059.03;;;18.86;100.00
46129;BME280;31860;45.186;5.790;2023-04-30T13:06:10;99063.44;;;18.86;100.00
46129;BME280;31860;45.186;5.790;2023-04-30T13:08:36;99060.09;;;18.81;100.00